ロンドン/ヒースロー の空港の天気 - METARとTAF

ロンドン・ヒースロー空港 ( EGLL / LHR ) - イギリス ロンドン
飛行場実況気象(Metar)
観測時間09/20 23:50 BST (09/20 22:50 UTC)
風向・風速南南西 10m/s
視程10km以上
天気現象弱い雨
全天の4割程度の雲 雲底高度 610m
全天の8割程度の雲 雲底高度 820m
気温18℃
湿度88%
気圧999hPa
METAREGLL 202250Z AUTO 20019KT 9999 -RA SCT020/// BKN027/// //////TCU 18/16 Q0999 TEMPO 7000 RA
過去の天気等 Google飛行場航空写真 Wunderground天気予報

過去48時間のMETAR

飛行場予報(TAF)
発表時間: 9/20 19:54 BST (9/20 18:54 UTC)
予報対象時間: 20日19時 BST ~ 22日1時 BST
風向・風速南南西 9m/s 瞬間風速 15m/s
視程10km以上
全天の4割程度の雲 雲底高度 610m
20日20時 BST ~ 20日23時 BST に 確率 30% で一時的に
視程8000m
天気現象しゅう雨
20日23時 BST ~ 21日3時 BST に一時的に
風向・風速南南西 13m/s 瞬間風速 23m/s
視程6000m
天気現象
全天の8割程度の雲 雲底高度 300m
21日0時 BST ~ 21日3時 BST に 確率 40% で一時的に
視程4000m
天気現象強い雨
21日2時 BST ~ 21日5時 BST に徐々に
風向・風速西 10m/s 瞬間風速 15m/s
21日12時 BST ~ 21日17時 BST に 確率 30% で一時的に
視程6000m
天気現象しゅう雨
21日19時 BST ~ 21日22時 BST に徐々に
風向・風速西南西 4m/s
TAF AMD EGLL 201854Z 2018/2124 21018G30KT 9999 SCT020
PROB30 TEMPO 2019/2022 8000 SHRA
TEMPO 2022/2102 20026G44KT 6000 RA BKN010
PROB40 TEMPO 2023/2102 4000 +RA
BECMG 2101/2104 26020G30KT
PROB30 TEMPO 2111/2116 6000 SHRA
BECMG 2118/2121 25008KT